createdAt,value
2018-12-17T00:00:25.657Z,18.82
2018-12-17T00:01:06.474Z,18.82
2018-12-17T00:01:47.267Z,18.84
2018-12-17T00:02:28.103Z,18.85
2018-12-17T00:03:08.852Z,18.8
2018-12-17T00:03:49.567Z,18.81
2018-12-17T00:04:30.301Z,18.84
2018-12-17T00:05:11.127Z,18.84
2018-12-17T00:05:52.034Z,18.8
2018-12-17T00:06:32.818Z,18.81
2018-12-17T00:07:13.598Z,18.81
2018-12-17T00:07:54.332Z,18.82
2018-12-17T00:08:35.091Z,18.84
2018-12-17T00:09:15.911Z,18.76
2018-12-17T00:09:56.669Z,18.85
2018-12-17T00:10:37.359Z,18.85
2018-12-17T00:11:18.154Z,18.81
2018-12-17T00:11:58.964Z,18.8
2018-12-17T00:12:39.728Z,18.85
2018-12-17T00:13:20.552Z,18.84
2018-12-17T00:14:01.295Z,18.78
2018-12-17T00:14:41.983Z,18.81
2018-12-17T00:15:22.744Z,18.8
2018-12-17T00:16:03.483Z,18.84
2018-12-17T00:16:44.344Z,18.82
2018-12-17T00:17:25.075Z,18.81
2018-12-17T00:18:05.867Z,18.8
2018-12-17T00:18:46.689Z,18.84
2018-12-17T00:19:27.474Z,18.82
2018-12-17T00:20:08.271Z,18.84
2018-12-17T00:20:49.005Z,18.8
2018-12-17T00:21:29.743Z,18.76
2018-12-17T00:22:10.506Z,18.75
2018-12-17T00:22:51.294Z,18.81
2018-12-17T00:23:32.063Z,18.76
2018-12-17T00:24:12.862Z,18.75
2018-12-17T00:24:53.583Z,18.75
2018-12-17T00:25:34.303Z,18.76
2018-12-17T00:26:15.112Z,18.76
2018-12-17T00:26:55.854Z,18.76
2018-12-17T00:27:36.548Z,18.84
2018-12-17T00:28:17.286Z,18.76
2018-12-17T00:28:58.028Z,18.8
2018-12-17T00:29:38.839Z,18.81
2018-12-17T00:30:19.592Z,18.81
2018-12-17T00:31:00.386Z,18.81
2018-12-17T00:31:41.252Z,18.78
2018-12-17T00:32:22.016Z,18.8
2018-12-17T00:33:02.867Z,18.84
2018-12-17T00:33:43.571Z,18.81
2018-12-17T00:34:24.383Z,18.82
2018-12-17T00:35:05.133Z,18.78
2018-12-17T00:35:45.826Z,18.84
2018-12-17T00:36:26.536Z,18.75
2018-12-17T00:37:07.249Z,18.84
2018-12-17T00:37:48.058Z,18.78
2018-12-17T00:38:28.944Z,18.8
2018-12-17T00:39:09.747Z,18.8
2018-12-17T00:39:50.487Z,18.81
2018-12-17T00:40:31.175Z,18.75
2018-12-17T00:41:11.887Z,18.78
2018-12-17T00:41:52.711Z,18.81
2018-12-17T00:42:33.557Z,18.81
2018-12-17T00:43:14.259Z,18.85
2018-12-17T00:43:54.977Z,18.78
2018-12-17T00:44:35.775Z,18.8
2018-12-17T00:45:16.534Z,18.84
2018-12-17T00:45:57.365Z,18.78
2018-12-17T00:46:38.099Z,18.84
2018-12-17T00:47:18.873Z,18.81
2018-12-17T00:47:59.575Z,18.8
2018-12-17T00:48:40.364Z,18.84
2018-12-17T00:49:21.194Z,18.78
2018-12-17T00:50:02.045Z,18.8
2018-12-17T00:50:42.769Z,18.85
2018-12-17T00:51:23.526Z,18.82
2018-12-17T00:52:04.324Z,18.84
2018-12-17T00:52:45.053Z,18.76
2018-12-17T00:53:25.775Z,18.82
2018-12-17T00:54:06.530Z,18.84
2018-12-17T00:54:47.304Z,18.82
2018-12-17T00:55:28.114Z,18.82
2018-12-17T00:56:08.929Z,18.76
2018-12-17T00:56:49.659Z,18.81
2018-12-17T00:57:30.396Z,18.76
2018-12-17T00:58:15.068Z,18.8
2018-12-17T00:58:51.826Z,18.84
2018-12-17T00:59:32.654Z,18.78
2018-12-17T01:00:13.465Z,18.76
2018-12-17T01:00:54.199Z,18.82
2018-12-17T01:01:34.985Z,18.76
2018-12-17T01:02:15.741Z,18.82
2018-12-17T01:02:56.586Z,18.78
2018-12-17T01:03:37.319Z,18.85
2018-12-17T01:04:18.053Z,18.8
2018-12-17T01:04:58.918Z,18.81
2018-12-17T01:05:39.691Z,18.8
2018-12-17T01:06:20.448Z,18.84
2018-12-17T01:07:01.154Z,18.81
2018-12-17T01:07:41.913Z,18.81
2018-12-17T01:08:22.732Z,18.8
2018-12-17T01:09:03.448Z,18.81
2018-12-17T01:09:44.204Z,18.78
2018-12-17T01:10:25.026Z,18.8
2018-12-17T01:11:05.909Z,18.8
2018-12-17T01:11:46.744Z,18.8
2018-12-17T01:12:27.468Z,18.8
2018-12-17T01:13:08.150Z,18.84
2018-12-17T01:13:48.857Z,18.84
2018-12-17T01:14:29.668Z,18.82
2018-12-17T01:15:10.451Z,18.85
2018-12-17T01:15:51.255Z,18.82
2018-12-17T01:16:32.053Z,18.8
2018-12-17T01:17:12.750Z,18.85
2018-12-17T01:17:53.543Z,18.8
2018-12-17T01:18:34.279Z,18.81
2018-12-17T01:19:15.049Z,18.88
2018-12-17T01:19:55.752Z,18.82
2018-12-17T01:20:36.484Z,18.82
2018-12-17T01:21:17.277Z,18.81
2018-12-17T01:21:58.066Z,18.8
2018-12-17T01:22:38.850Z,18.81
2018-12-17T01:23:19.587Z,18.82
2018-12-17T01:24:01.096Z,18.82
2018-12-17T01:24:41.799Z,18.82
2018-12-17T01:25:22.579Z,18.73
2018-12-17T01:26:03.346Z,18.82
2018-12-17T01:26:44.092Z,18.81
2018-12-17T01:27:24.856Z,18.75
2018-12-17T01:28:05.658Z,18.81
2018-12-17T01:28:46.514Z,18.75
2018-12-17T01:29:27.259Z,18.84
2018-12-17T01:30:08.009Z,18.87
2018-12-17T01:30:48.750Z,18.82
2018-12-17T01:31:29.513Z,18.85
2018-12-17T01:32:10.345Z,18.81
2018-12-17T01:32:51.150Z,18.84
2018-12-17T01:33:31.965Z,18.81
2018-12-17T01:34:12.689Z,18.8
2018-12-17T01:34:53.425Z,18.82
2018-12-17T01:35:34.266Z,18.85
2018-12-17T01:36:15.019Z,18.8
2018-12-17T01:36:55.713Z,18.85
2018-12-17T01:37:36.459Z,18.73
2018-12-17T01:38:17.208Z,18.78
2018-12-17T01:38:58.030Z,18.78
2018-12-17T01:39:38.748Z,18.76
2018-12-17T01:40:19.507Z,18.85
2018-12-17T01:41:00.300Z,18.82
2018-12-17T01:41:41.068Z,18.82
2018-12-17T01:42:21.865Z,18.73
2018-12-17T01:43:02.611Z,18.82
2018-12-17T01:43:43.373Z,18.8
2018-12-17T01:44:24.174Z,18.82
2018-12-17T01:45:04.889Z,18.76
2018-12-17T01:45:45.588Z,18.82
2018-12-17T01:46:26.291Z,18.82
2018-12-17T01:47:07.042Z,18.76
2018-12-17T01:47:47.818Z,18.82
2018-12-17T01:48:28.639Z,18.8
2018-12-17T01:49:09.425Z,18.8
2018-12-17T01:49:50.148Z,18.82
2018-12-17T01:50:30.927Z,18.82
2018-12-17T01:51:11.704Z,18.81
2018-12-17T01:51:52.489Z,18.82
2018-12-17T01:52:33.234Z,18.84
2018-12-17T01:53:13.976Z,18.75
2018-12-17T01:53:54.807Z,18.82
2018-12-17T01:54:35.592Z,18.8
2018-12-17T01:55:16.413Z,18.81
2018-12-17T01:55:57.152Z,18.81
2018-12-17T01:56:37.965Z,18.82
2018-12-17T01:57:18.713Z,18.82
2018-12-17T01:57:59.437Z,18.85
2018-12-17T01:58:40.183Z,18.78
2018-12-17T01:59:20.874Z,18.84
2018-12-17T02:00:01.671Z,18.85
2018-12-17T02:00:42.498Z,18.8
2018-12-17T02:01:23.278Z,18.85
2018-12-17T02:02:04.019Z,18.82
2018-12-17T02:02:44.879Z,18.84
2018-12-17T02:03:25.652Z,18.78
2018-12-17T02:04:06.454Z,18.75
2018-12-17T02:04:47.220Z,18.84
2018-12-17T02:05:27.939Z,18.84
2018-12-17T02:06:08.653Z,18.84
2018-12-17T02:06:49.486Z,18.8
2018-12-17T02:07:30.257Z,18.81
2018-12-17T02:08:11.040Z,18.75
2018-12-17T02:08:51.758Z,18.78
2018-12-17T02:09:32.530Z,18.82
2018-12-17T02:10:13.315Z,18.75
2018-12-17T02:10:54.077Z,18.78
2018-12-17T02:11:34.817Z,18.76
2018-12-17T02:12:15.577Z,18.8
2018-12-17T02:12:56.363Z,18.78
2018-12-17T02:13:37.120Z,18.8
2018-12-17T02:14:17.902Z,18.84
2018-12-17T02:14:58.609Z,18.81
2018-12-17T02:15:39.436Z,18.75
2018-12-17T02:16:20.247Z,18.8
2018-12-17T02:17:01.020Z,18.72
2018-12-17T02:17:41.810Z,18.72
2018-12-17T02:18:22.576Z,18.8
2018-12-17T02:19:03.327Z,18.7
2018-12-17T02:19:44.053Z,18.75
2018-12-17T02:20:24.770Z,18.76
2018-12-17T02:21:05.477Z,18.81
2018-12-17T02:21:46.253Z,18.85
2018-12-17T02:22:27.005Z,18.76
2018-12-17T02:23:07.812Z,18.78
2018-12-17T02:23:48.593Z,18.76
2018-12-17T02:24:29.342Z,18.8
2018-12-17T02:25:10.068Z,18.78
2018-12-17T02:25:50.800Z,18.75
2018-12-17T02:26:31.592Z,18.78
2018-12-17T02:27:12.354Z,18.78
2018-12-17T02:27:53.107Z,18.72
2018-12-17T02:28:36.190Z,18.75
2018-12-17T02:29:14.704Z,18.8
2018-12-17T02:29:55.475Z,18.8
2018-12-17T02:30:36.188Z,18.75
2018-12-17T02:31:16.947Z,18.81
2018-12-17T02:31:57.700Z,18.76
2018-12-17T02:32:38.513Z,18.75
2018-12-17T02:33:19.251Z,18.81
2018-12-17T02:34:00.062Z,18.73
2018-12-17T02:34:40.822Z,18.78
2018-12-17T02:35:21.573Z,18.75
2018-12-17T02:36:02.394Z,18.75
2018-12-17T02:36:43.170Z,18.76
2018-12-17T02:37:23.870Z,18.75
2018-12-17T02:38:04.607Z,18.76
2018-12-17T02:38:45.329Z,18.81
2018-12-17T02:39:26.138Z,18.75
2018-12-17T02:40:06.911Z,18.72
2018-12-17T02:40:47.762Z,18.78
2018-12-17T02:41:28.539Z,18.76
2018-12-17T02:42:09.269Z,18.82
2018-12-17T02:42:50.021Z,18.67
2018-12-17T02:43:30.817Z,18.73
2018-12-17T02:44:11.586Z,18.73
2018-12-17T02:44:52.323Z,18.73
2018-12-17T02:45:33.098Z,18.75
2018-12-17T02:46:13.946Z,18.8
2018-12-17T02:46:54.806Z,18.7
2018-12-17T02:47:35.614Z,18.66
2018-12-17T02:48:16.353Z,18.67
2018-12-17T02:48:57.161Z,18.75
2018-12-17T02:49:37.950Z,18.8
2018-12-17T02:50:18.665Z,18.85
2018-12-17T02:50:59.368Z,18.63
2018-12-17T02:51:40.106Z,18.73
2018-12-17T02:52:20.903Z,18.67
2018-12-17T02:53:01.660Z,18.8
2018-12-17T02:53:42.432Z,18.67
2018-12-17T02:54:23.193Z,18.7
2018-12-17T02:55:04.030Z,18.67
2018-12-17T02:55:44.797Z,18.75
2018-12-17T02:56:25.557Z,18.75
2018-12-17T02:57:06.348Z,18.69
2018-12-17T02:57:47.141Z,18.7
2018-12-17T02:58:27.874Z,18.7
2018-12-17T02:59:08.684Z,18.72
2018-12-17T02:59:49.501Z,18.76
2018-12-17T03:00:30.258Z,18.66
2018-12-17T03:01:11.019Z,18.63
2018-12-17T03:01:51.808Z,18.7
2018-12-17T03:02:32.583Z,18.73
2018-12-17T03:03:13.333Z,18.66
2018-12-17T03:03:54.049Z,18.73
2018-12-17T03:04:34.798Z,18.67
2018-12-17T03:05:15.621Z,18.7
2018-12-17T03:05:56.509Z,18.69
2018-12-17T03:06:37.282Z,18.7
2018-12-17T03:07:18.086Z,18.72
2018-12-17T03:07:58.774Z,18.72
2018-12-17T03:08:39.478Z,18.67
2018-12-17T03:09:20.224Z,18.67
2018-12-17T03:10:00.997Z,18.69
2018-12-17T03:10:41.780Z,18.75
2018-12-17T03:11:22.544Z,18.75
2018-12-17T03:12:03.278Z,18.7
2018-12-17T03:12:44.045Z,18.63
2018-12-17T03:13:24.818Z,18.7
2018-12-17T03:14:05.583Z,18.75
2018-12-17T03:14:46.425Z,18.7
2018-12-17T03:15:27.178Z,18.72
2018-12-17T03:16:07.964Z,18.7
2018-12-17T03:16:48.782Z,18.67
2018-12-17T03:17:29.587Z,18.67
2018-12-17T03:18:10.368Z,18.67
2018-12-17T03:18:51.114Z,18.7
2018-12-17T03:19:31.872Z,18.69
2018-12-17T03:20:12.740Z,18.7
2018-12-17T03:20:53.461Z,18.72
2018-12-17T03:21:34.176Z,18.69
2018-12-17T03:22:14.944Z,18.69
2018-12-17T03:22:55.697Z,18.67
2018-12-17T03:23:36.499Z,18.69
2018-12-17T03:24:17.252Z,18.65
2018-12-17T03:24:57.992Z,18.62
2018-12-17T03:25:38.856Z,18.72
2018-12-17T03:26:19.728Z,18.63
2018-12-17T03:27:00.497Z,18.72
2018-12-17T03:27:41.246Z,18.66
2018-12-17T03:28:22.036Z,18.66
2018-12-17T03:29:02.870Z,18.62
2018-12-17T03:29:43.603Z,18.7
2018-12-17T03:30:24.305Z,18.7
2018-12-17T03:31:05.023Z,18.73
2018-12-17T03:31:45.787Z,18.63
2018-12-17T03:32:26.596Z,18.67
2018-12-17T03:33:07.416Z,18.73
2018-12-17T03:33:48.150Z,18.65
2018-12-17T03:34:28.856Z,18.66
2018-12-17T03:35:09.628Z,18.69
2018-12-17T03:35:50.416Z,18.67
2018-12-17T03:36:31.270Z,18.63
2018-12-17T03:37:12.007Z,18.72
2018-12-17T03:37:52.826Z,18.67
2018-12-17T03:38:33.597Z,18.69
2018-12-17T03:39:14.448Z,18.65
2018-12-17T03:39:55.237Z,18.63
2018-12-17T03:40:35.911Z,18.65
2018-12-17T03:41:16.583Z,18.67
2018-12-17T03:41:57.420Z,18.62
2018-12-17T03:42:38.194Z,18.66
2018-12-17T03:43:19.032Z,18.62
2018-12-17T03:43:59.822Z,18.67
2018-12-17T03:44:40.561Z,18.63
2018-12-17T03:45:21.286Z,18.65
2018-12-17T03:46:02.139Z,18.67
2018-12-17T03:46:42.946Z,18.58
2018-12-17T03:47:23.691Z,18.63
2018-12-17T03:48:04.441Z,18.73
2018-12-17T03:48:45.181Z,18.65
2018-12-17T03:49:25.999Z,18.69
2018-12-17T03:50:06.788Z,18.7
2018-12-17T03:50:47.669Z,18.67
2018-12-17T03:51:28.400Z,18.65
2018-12-17T03:52:09.162Z,18.7
2018-12-17T03:52:49.893Z,18.63
2018-12-17T03:53:30.775Z,18.6
2018-12-17T03:54:11.565Z,18.6
2018-12-17T03:54:52.332Z,18.66
2018-12-17T03:55:33.153Z,18.63
2018-12-17T03:56:13.965Z,18.67
2018-12-17T03:56:54.780Z,18.7
2018-12-17T03:57:35.543Z,18.66
2018-12-17T03:58:16.255Z,18.69
2018-12-17T03:58:59.346Z,18.65
2018-12-17T03:59:37.861Z,18.7
2018-12-17T04:00:18.619Z,18.65
2018-12-17T04:00:59.335Z,18.69
2018-12-17T04:01:40.051Z,18.73
2018-12-17T04:02:20.830Z,18.63
2018-12-17T04:03:01.593Z,18.69
2018-12-17T04:03:42.391Z,18.66
2018-12-17T04:04:23.178Z,18.69
2018-12-17T04:05:04.044Z,18.65
2018-12-17T04:05:44.868Z,18.67
2018-12-17T04:06:25.580Z,18.65
2018-12-17T04:07:06.442Z,18.66
2018-12-17T04:07:47.367Z,18.58
2018-12-17T04:08:28.107Z,18.57
2018-12-17T04:09:08.939Z,18.65
2018-12-17T04:09:49.678Z,18.69
2018-12-17T04:10:30.457Z,18.6
2018-12-17T04:11:11.221Z,18.67
2018-12-17T04:11:51.993Z,18.65
2018-12-17T04:12:32.831Z,18.57
2018-12-17T04:13:13.619Z,18.65
2018-12-17T04:13:54.361Z,18.66
2018-12-17T04:14:35.116Z,18.57
2018-12-17T04:15:15.890Z,18.55
2018-12-17T04:15:56.789Z,18.62
2018-12-17T04:16:37.513Z,18.58
2018-12-17T04:17:18.289Z,18.65
2018-12-17T04:17:59.113Z,18.51
2018-12-17T04:18:39.928Z,18.55
2018-12-17T04:19:20.745Z,18.57
2018-12-17T04:20:01.482Z,18.58
2018-12-17T04:20:42.245Z,18.55
2018-12-17T04:21:23.132Z,18.54
2018-12-17T04:22:03.792Z,18.5
2018-12-17T04:22:44.518Z,18.57
2018-12-17T04:23:25.320Z,18.57
2018-12-17T04:24:06.115Z,18.57
2018-12-17T04:24:46.898Z,18.54
2018-12-17T04:25:27.742Z,18.58
2018-12-17T04:26:08.457Z,18.51
2018-12-17T04:26:49.163Z,18.54
2018-12-17T04:27:29.887Z,18.57
2018-12-17T04:28:10.652Z,18.58
2018-12-17T04:28:51.612Z,18.6
2018-12-17T04:29:32.342Z,18.57
2018-12-17T04:30:13.130Z,18.54
2018-12-17T04:30:54.006Z,18.55
2018-12-17T04:31:34.768Z,18.54
2018-12-17T04:32:15.597Z,18.54
2018-12-17T04:32:56.298Z,18.58
2018-12-17T04:33:37.092Z,18.54
2018-12-17T04:34:17.881Z,18.52
2018-12-17T04:34:58.588Z,18.54
2018-12-17T04:35:39.297Z,18.6
2018-12-17T04:36:20.066Z,18.55
2018-12-17T04:37:00.867Z,18.51
2018-12-17T04:37:41.613Z,18.58
2018-12-17T04:38:22.375Z,18.6
2018-12-17T04:39:03.150Z,18.55
2018-12-17T04:39:43.947Z,18.52
2018-12-17T04:40:24.780Z,18.54
2018-12-17T04:41:05.499Z,18.6
2018-12-17T04:41:46.242Z,18.48
2018-12-17T04:42:27.014Z,18.52
2018-12-17T04:43:07.785Z,18.62
2018-12-17T04:43:48.676Z,18.57
2018-12-17T04:44:29.512Z,18.47
2018-12-17T04:45:10.274Z,18.55
2018-12-17T04:45:51.030Z,18.63
2018-12-17T04:46:31.799Z,18.58
2018-12-17T04:47:12.657Z,18.54
2018-12-17T04:47:53.403Z,18.6
2018-12-17T04:48:34.152Z,18.47
2018-12-17T04:49:14.909Z,18.58
2018-12-17T04:49:55.715Z,18.52
2018-12-17T04:50:36.563Z,18.48
2018-12-17T04:51:17.445Z,18.5
2018-12-17T04:51:58.170Z,18.5
2018-12-17T04:52:38.894Z,18.51
2018-12-17T04:53:19.624Z,18.5
2018-12-17T04:54:00.383Z,18.51
2018-12-17T04:54:41.231Z,18.5
2018-12-17T04:55:22.017Z,18.52
2018-12-17T04:56:02.747Z,18.47
2018-12-17T04:56:44.500Z,18.48
2018-12-17T04:57:24.373Z,18.48
2018-12-17T04:58:05.211Z,18.52
2018-12-17T04:58:45.963Z,18.52
2018-12-17T04:59:26.706Z,18.54
2018-12-17T05:00:07.409Z,18.54
2018-12-17T05:00:48.133Z,18.45
2018-12-17T05:01:28.950Z,18.52
2018-12-17T05:02:09.775Z,18.51
2018-12-17T05:02:50.506Z,18.5
2018-12-17T05:03:31.238Z,18.52
2018-12-17T05:04:12.055Z,18.51
2018-12-17T05:04:52.858Z,18.41
2018-12-17T05:05:33.559Z,18.55
2018-12-17T05:06:14.281Z,18.55
2018-12-17T05:06:55.042Z,18.5
2018-12-17T05:07:35.900Z,18.48
2018-12-17T05:08:16.634Z,18.45
2018-12-17T05:08:57.484Z,18.48
2018-12-17T05:09:38.280Z,18.5
2018-12-17T05:10:19.058Z,18.51
2018-12-17T05:10:59.890Z,18.42
2018-12-17T05:11:40.572Z,18.54
2018-12-17T05:12:21.283Z,18.54
2018-12-17T05:13:02.129Z,18.5
2018-12-17T05:13:42.853Z,18.51
2018-12-17T05:14:23.548Z,18.48
2018-12-17T05:15:04.305Z,18.48
2018-12-17T05:15:45.119Z,18.57
2018-12-17T05:16:25.988Z,18.48
2018-12-17T05:17:06.833Z,18.42
2018-12-17T05:17:47.666Z,18.51
2018-12-17T05:18:28.431Z,18.48
2018-12-17T05:19:09.160Z,18.5
2018-12-17T05:19:49.898Z,18.47
2018-12-17T05:20:30.695Z,18.52
2018-12-17T05:21:11.457Z,18.5
2018-12-17T05:21:52.161Z,18.52
2018-12-17T05:22:32.928Z,18.5
2018-12-17T05:23:13.695Z,18.5
2018-12-17T05:23:54.491Z,18.5
2018-12-17T05:24:35.205Z,18.5
2018-12-17T05:25:15.955Z,18.47
2018-12-17T05:25:56.763Z,18.52
2018-12-17T05:26:37.505Z,18.47
2018-12-17T05:27:18.199Z,18.42
2018-12-17T05:27:58.957Z,18.5
2018-12-17T05:28:39.727Z,18.55
2018-12-17T05:29:21.601Z,18.48
2018-12-17T05:30:01.281Z,18.52
2018-12-17T05:30:41.967Z,18.45
2018-12-17T05:31:22.766Z,18.44
2018-12-17T05:32:03.521Z,18.5
2018-12-17T05:32:44.324Z,18.47
2018-12-17T05:33:25.060Z,18.5
2018-12-17T05:34:05.789Z,18.41
2018-12-17T05:34:46.538Z,18.45
2018-12-17T05:35:27.302Z,18.41
2018-12-17T05:36:08.092Z,18.47
2018-12-17T05:36:48.942Z,18.51
2018-12-17T05:37:29.737Z,18.44
2018-12-17T05:38:12.137Z,18.42
2018-12-17T05:38:51.263Z,18.41
2018-12-17T05:39:32.001Z,18.41
2018-12-17T05:40:12.751Z,18.44
2018-12-17T05:40:53.478Z,18.54
2018-12-17T05:41:34.208Z,18.48
2018-12-17T05:42:15.046Z,18.45
2018-12-17T05:42:55.782Z,18.48
2018-12-17T05:43:36.486Z,18.44
2018-12-17T05:44:17.308Z,18.47
2018-12-17T05:44:58.034Z,18.44
2018-12-17T05:45:38.854Z,18.48
2018-12-17T05:46:19.579Z,18.48
2018-12-17T05:47:00.265Z,18.45
2018-12-17T05:47:41.111Z,18.47
2018-12-17T05:48:21.925Z,18.45
2018-12-17T05:49:03.534Z,18.45
2018-12-17T05:49:43.353Z,18.5
2018-12-17T05:50:24.079Z,18.47
2018-12-17T05:51:04.904Z,18.54
2018-12-17T05:51:45.729Z,18.45
2018-12-17T05:52:26.499Z,18.51
2018-12-17T05:53:07.203Z,18.41
2018-12-17T05:53:47.982Z,18.48
2018-12-17T05:54:28.665Z,18.45
2018-12-17T05:55:09.461Z,18.48
2018-12-17T05:55:50.198Z,18.54
2018-12-17T05:56:30.912Z,18.48
2018-12-17T05:57:11.665Z,18.37
2018-12-17T05:57:52.450Z,18.42
2018-12-17T05:58:33.258Z,18.5
2018-12-17T05:59:13.997Z,18.51
2018-12-17T05:59:54.681Z,18.54
2018-12-17T06:00:35.438Z,18.54
2018-12-17T06:01:16.188Z,18.54
2018-12-17T06:01:57.004Z,18.5
2018-12-17T06:02:37.806Z,18.51
2018-12-17T06:03:18.616Z,18.54
2018-12-17T06:03:59.391Z,18.5
2018-12-17T06:04:40.242Z,18.51
2018-12-17T06:05:21.106Z,18.5
2018-12-17T06:06:01.871Z,18.54
2018-12-17T06:06:42.601Z,18.48
2018-12-17T06:07:23.325Z,18.51
2018-12-17T06:08:04.075Z,18.54
2018-12-17T06:08:44.940Z,18.44
2018-12-17T06:09:25.848Z,18.45
2018-12-17T06:10:06.648Z,18.45
2018-12-17T06:10:47.456Z,18.47
2018-12-17T06:11:28.239Z,18.48
2018-12-17T06:12:08.962Z,18.5
2018-12-17T06:12:49.999Z,18.47
2018-12-17T06:13:30.795Z,18.47
2018-12-17T06:14:11.537Z,18.5
2018-12-17T06:14:52.352Z,18.5
2018-12-17T06:15:33.159Z,18.39
2018-12-17T06:16:13.922Z,18.5
2018-12-17T06:16:54.648Z,18.42
2018-12-17T06:17:35.372Z,18.39
2018-12-17T06:18:16.140Z,18.5
2018-12-17T06:18:56.866Z,18.42
2018-12-17T06:19:37.604Z,18.5
2018-12-17T06:20:18.333Z,18.42
2018-12-17T06:20:59.066Z,18.5
2018-12-17T06:21:39.866Z,18.42
2018-12-17T06:22:20.597Z,18.47
2018-12-17T06:23:01.324Z,18.5
2018-12-17T06:23:42.106Z,18.42
2018-12-17T06:24:22.982Z,18.45
2018-12-17T06:25:03.832Z,18.48
2018-12-17T06:25:44.553Z,18.51
2018-12-17T06:26:25.512Z,18.51
2018-12-17T06:27:06.259Z,18.47
2018-12-17T06:27:47.080Z,18.5
2018-12-17T06:28:27.893Z,18.47
2018-12-17T06:29:08.791Z,18.48
2018-12-17T06:29:49.464Z,18.48
2018-12-17T06:30:30.166Z,18.52
2018-12-17T06:31:10.982Z,18.5
2018-12-17T06:31:51.756Z,18.48
2018-12-17T06:32:32.511Z,18.5
2018-12-17T06:33:15.720Z,18.5
2018-12-17T06:35:28.784Z,18.47
2018-12-17T06:36:09.572Z,18.52
2018-12-17T06:36:50.331Z,18.42
2018-12-17T06:37:31.077Z,18.47
2018-12-17T06:38:11.865Z,18.45
2018-12-17T06:38:52.623Z,18.44
2018-12-17T06:39:33.384Z,18.44
2018-12-17T06:40:14.111Z,18.5
2018-12-17T06:40:54.861Z,18.44
2018-12-17T06:41:35.631Z,18.47
2018-12-17T06:42:16.405Z,18.39
2018-12-17T06:42:57.179Z,18.44
2018-12-17T06:43:38.004Z,18.44
2018-12-17T06:44:18.830Z,18.41
2018-12-17T06:44:59.550Z,18.47
2018-12-17T06:45:40.387Z,18.44
2018-12-17T06:46:21.148Z,18.44
2018-12-17T06:47:01.891Z,18.44
2018-12-17T06:47:42.586Z,18.44
2018-12-17T06:48:23.308Z,18.44
2018-12-17T06:49:04.086Z,18.44
2018-12-17T06:49:44.839Z,18.44
2018-12-17T06:50:25.700Z,18.47
2018-12-17T06:51:06.487Z,18.45
2018-12-17T06:51:47.238Z,18.41
2018-12-17T06:52:28.007Z,18.47
2018-12-17T06:53:08.746Z,18.42
2018-12-17T06:53:49.545Z,18.44
2018-12-17T06:54:30.318Z,18.48
2018-12-17T06:55:11.017Z,18.39
2018-12-17T06:55:51.843Z,18.39
2018-12-17T06:56:32.866Z,18.39
2018-12-17T06:57:13.675Z,18.41
2018-12-17T06:57:54.400Z,18.44
2018-12-17T06:58:35.180Z,18.44
2018-12-17T06:59:15.980Z,18.44
2018-12-17T06:59:56.717Z,18.44
2018-12-17T07:00:37.419Z,18.41
2018-12-17T07:01:18.228Z,18.44
2018-12-17T07:01:59.020Z,18.45
2018-12-17T07:02:39.932Z,18.44
2018-12-17T07:03:20.694Z,18.44
2018-12-17T07:04:01.452Z,18.44
2018-12-17T07:04:42.266Z,18.44
2018-12-17T07:05:23.036Z,18.48
2018-12-17T07:06:03.916Z,18.42
2018-12-17T07:06:44.643Z,18.44
2018-12-17T07:07:25.382Z,18.42
2018-12-17T07:08:06.132Z,18.44
2018-12-17T07:08:46.925Z,18.44
2018-12-17T07:09:27.716Z,18.42
2018-12-17T07:10:08.515Z,18.45
2018-12-17T07:10:49.254Z,18.45
2018-12-17T07:11:29.959Z,18.42
2018-12-17T07:12:10.739Z,18.45
2018-12-17T07:12:51.502Z,18.51
2018-12-17T07:13:32.225Z,18.52
2018-12-17T07:14:12.965Z,18.42
2018-12-17T07:14:53.781Z,18.5
2018-12-17T07:15:34.599Z,18.5
2018-12-17T07:16:15.369Z,18.45
2018-12-17T07:16:56.230Z,18.45
2018-12-17T07:17:36.942Z,18.54
2018-12-17T07:18:17.659Z,18.47
2018-12-17T07:18:58.404Z,18.5
2018-12-17T07:19:39.152Z,18.54
2018-12-17T07:20:19.970Z,18.42
2018-12-17T07:21:00.726Z,18.47
2018-12-17T07:21:41.460Z,18.48
2018-12-17T07:22:22.266Z,18.47
2018-12-17T07:23:03.011Z,18.48
2018-12-17T07:23:43.786Z,18.5
2018-12-17T07:24:24.528Z,18.5
2018-12-17T07:25:05.302Z,18.37
2018-12-17T07:25:46.110Z,18.5
2018-12-17T07:26:26.873Z,18.44
2018-12-17T07:27:07.676Z,18.48
2018-12-17T07:27:48.514Z,18.48
2018-12-17T07:28:29.275Z,18.54
2018-12-17T07:29:09.985Z,18.45
2018-12-17T07:29:50.787Z,18.51
2018-12-17T07:30:31.541Z,18.47
2018-12-17T07:31:12.273Z,18.48
2018-12-17T07:31:52.992Z,18.54
2018-12-17T07:32:33.734Z,18.47
2018-12-17T07:33:14.570Z,18.51
2018-12-17T07:33:55.317Z,18.48
2018-12-17T07:34:36.021Z,18.47
2018-12-17T07:35:16.865Z,18.6
2018-12-17T07:35:57.681Z,18.63
2018-12-17T07:36:38.541Z,18.54
2018-12-17T07:37:19.251Z,18.62
2018-12-17T07:38:00.046Z,18.63
2018-12-17T07:38:40.891Z,18.6
2018-12-17T07:39:21.583Z,18.72
2018-12-17T07:40:02.312Z,18.7
2018-12-17T07:40:43.012Z,18.69
2018-12-17T07:41:23.757Z,18.73
2018-12-17T07:42:04.548Z,18.72
2018-12-17T07:42:45.335Z,18.78
2018-12-17T07:43:26.096Z,18.78
2018-12-17T07:44:06.828Z,18.78
2018-12-17T07:44:47.552Z,18.69
2018-12-17T07:45:28.281Z,18.7
2018-12-17T07:46:09.127Z,18.8
2018-12-17T07:46:49.898Z,18.8
2018-12-17T07:47:30.634Z,18.7
2018-12-17T07:48:11.384Z,18.66
2018-12-17T07:48:52.253Z,18.67
2018-12-17T07:49:33.109Z,18.8
2018-12-17T07:50:13.802Z,18.75
2018-12-17T07:50:54.504Z,18.65
2018-12-17T07:51:35.310Z,18.75
2018-12-17T07:52:16.078Z,18.72
2018-12-17T07:52:56.960Z,18.63
2018-12-17T07:53:37.772Z,18.67
2018-12-17T07:54:18.577Z,18.8
2018-12-17T07:54:59.356Z,18.7
2018-12-17T07:55:40.153Z,18.73
2018-12-17T07:56:20.929Z,18.73
2018-12-17T07:57:01.652Z,18.7
2018-12-17T07:57:42.350Z,18.73
2018-12-17T07:58:23.147Z,18.7
2018-12-17T07:59:03.932Z,18.73
2018-12-17T07:59:44.769Z,18.76
2018-12-17T08:00:25.592Z,18.69
2018-12-17T08:01:06.331Z,18.73
2018-12-17T08:01:47.102Z,18.78
2018-12-17T08:02:27.834Z,18.72
2018-12-17T08:03:08.653Z,18.76
2018-12-17T08:03:49.471Z,18.75
2018-12-17T08:04:30.193Z,18.8
2018-12-17T08:05:11.050Z,18.76
2018-12-17T08:05:51.860Z,18.75
2018-12-17T08:06:32.694Z,18.69
2018-12-17T08:07:13.565Z,18.7
2018-12-17T08:07:54.329Z,18.69
2018-12-17T08:08:35.474Z,18.67
2018-12-17T08:09:15.889Z,18.67
2018-12-17T08:09:56.651Z,18.75
2018-12-17T08:10:37.480Z,18.69
2018-12-17T08:11:18.206Z,18.69
2018-12-17T08:11:58.984Z,18.63
2018-12-17T08:12:39.825Z,18.7
2018-12-17T08:13:20.669Z,18.65
2018-12-17T08:14:01.475Z,18.72
2018-12-17T08:14:42.326Z,18.69
2018-12-17T08:15:23.156Z,18.65
2018-12-17T08:16:03.899Z,18.65
2018-12-17T08:16:44.684Z,18.58
2018-12-17T08:17:25.412Z,18.54
2018-12-17T08:18:06.252Z,18.55
2018-12-17T08:18:47.005Z,18.54
2018-12-17T08:19:29.000Z,18.51
2018-12-17T08:20:08.931Z,18.54
2018-12-17T08:20:49.604Z,18.48
2018-12-17T08:21:30.395Z,18.52
2018-12-17T08:22:11.271Z,18.54
2018-12-17T08:22:51.993Z,18.54
2018-12-17T08:23:32.716Z,18.55
2018-12-17T08:24:13.512Z,18.52
2018-12-17T08:24:54.222Z,18.6
2018-12-17T08:25:35.015Z,18.55
2018-12-17T08:26:15.706Z,18.6
2018-12-17T08:26:56.486Z,18.51
2018-12-17T08:27:37.279Z,18.58
2018-12-17T08:28:18.131Z,18.65
2018-12-17T08:28:58.901Z,18.52
2018-12-17T08:29:39.633Z,18.58
2018-12-17T08:30:20.364Z,18.51
2018-12-17T08:31:01.166Z,18.54
2018-12-17T08:31:41.872Z,18.51
2018-12-17T08:32:22.610Z,18.5
2018-12-17T08:33:03.351Z,18.58
2018-12-17T08:33:44.139Z,18.54
2018-12-17T08:34:24.979Z,18.6
2018-12-17T08:35:05.748Z,18.62
2018-12-17T08:35:46.474Z,18.62
2018-12-17T08:36:27.188Z,18.54
2018-12-17T08:37:07.983Z,18.5
2018-12-17T08:37:48.716Z,18.57
2018-12-17T08:38:29.549Z,18.6
2018-12-17T08:39:10.269Z,18.62
2018-12-17T08:39:51.074Z,18.54
2018-12-17T08:40:31.903Z,18.55
2018-12-17T08:41:12.621Z,18.58
2018-12-17T08:41:53.406Z,18.54
2018-12-17T08:42:34.153Z,18.62
2018-12-17T08:43:14.962Z,18.55
2018-12-17T08:43:55.770Z,18.48
2018-12-17T08:44:36.533Z,18.58
2018-12-17T08:45:17.265Z,18.57
2018-12-17T08:45:57.979Z,18.57
2018-12-17T08:46:38.759Z,18.62
2018-12-17T08:47:19.520Z,18.6
2018-12-17T08:48:00.297Z,18.54
2018-12-17T08:48:41.073Z,18.66
2018-12-17T08:49:21.884Z,18.62
2018-12-17T08:50:02.677Z,18.57